createdAt,value
2023-05-08T00:01:04.607Z,4.82
2023-05-08T00:03:31.354Z,4.75
2023-05-08T00:06:00.225Z,4.40
2023-05-08T00:08:26.820Z,4.55
2023-05-08T00:10:53.533Z,4.40
2023-05-08T00:13:20.192Z,4.50
2023-05-08T00:15:46.982Z,4.00
2023-05-08T00:18:13.600Z,4.15
2023-05-08T00:20:40.356Z,4.15
2023-05-08T00:23:07.012Z,4.65
2023-05-08T00:25:53.673Z,4.63
2023-05-08T00:28:20.380Z,4.70
2023-05-08T00:30:46.981Z,4.55
2023-05-08T00:33:14.024Z,5.15
2023-05-08T00:35:46.047Z,4.18
2023-05-08T00:40:39.927Z,3.97
2023-05-08T00:43:06.607Z,4.80
2023-05-08T00:45:33.427Z,4.30
2023-05-08T00:48:00.226Z,4.45
2023-05-08T00:50:27.093Z,4.78
2023-05-08T00:52:53.767Z,4.18
2023-05-08T00:55:21.934Z,4.22
2023-05-08T00:57:48.711Z,3.90
2023-05-08T01:00:15.455Z,4.45
2023-05-08T01:02:42.308Z,4.85
2023-05-08T01:05:08.957Z,4.53
2023-05-08T01:07:38.944Z,4.28
2023-05-08T01:10:05.590Z,4.05
2023-05-08T01:12:32.178Z,4.88
2023-05-08T01:14:58.921Z,4.40
2023-05-08T01:17:25.816Z,4.30
2023-05-08T01:19:52.460Z,4.07
2023-05-08T01:22:19.042Z,4.30
2023-05-08T01:24:45.647Z,4.20
2023-05-08T01:27:32.402Z,4.30
2023-05-08T01:29:59.021Z,3.90
2023-05-08T01:32:26.401Z,3.42
2023-05-08T01:34:53.100Z,4.20
2023-05-08T01:37:19.950Z,4.47
2023-05-08T01:39:46.617Z,4.25
2023-05-08T01:42:13.277Z,4.15
2023-05-08T01:44:39.883Z,4.00
2023-05-08T01:47:07.683Z,3.70
2023-05-08T01:49:35.149Z,4.20
2023-05-08T01:52:02.138Z,4.03
2023-05-08T01:54:28.804Z,3.70
2023-05-08T01:56:55.516Z,3.20
2023-05-08T01:59:22.196Z,3.70
2023-05-08T02:01:48.789Z,3.30
2023-05-08T02:04:15.595Z,4.00
2023-05-08T02:06:44.403Z,3.50
2023-05-08T02:09:12.229Z,4.22
2023-05-08T02:11:38.825Z,3.80
2023-05-08T02:14:05.442Z,3.85
2023-05-08T02:16:34.332Z,3.80
2023-05-08T02:19:00.945Z,3.55
2023-05-08T02:21:27.555Z,3.65
2023-05-08T02:23:54.157Z,3.90
2023-05-08T02:26:22.331Z,3.30
2023-05-08T02:28:48.965Z,3.38
2023-05-08T02:31:15.670Z,3.60
2023-05-08T02:33:42.272Z,3.10
2023-05-08T02:36:09.925Z,3.50
2023-05-08T02:38:36.730Z,3.42
2023-05-08T02:41:03.423Z,3.40
2023-05-08T02:43:30.679Z,2.97
2023-05-08T02:45:58.575Z,3.35
2023-05-08T02:48:25.738Z,3.30
2023-05-08T02:50:52.342Z,3.45
2023-05-08T02:53:19.091Z,3.17
2023-05-08T02:55:48.325Z,3.30
2023-05-08T02:58:15.112Z,3.25
2023-05-08T03:00:41.993Z,2.97
2023-05-08T03:03:08.743Z,2.95
2023-05-08T03:05:37.049Z,2.78
2023-05-08T03:08:03.693Z,3.35
2023-05-08T03:10:30.464Z,2.80
2023-05-08T03:12:57.088Z,3.47
2023-05-08T03:15:24.062Z,2.88
2023-05-08T03:17:50.944Z,3.08
2023-05-08T03:20:17.600Z,2.90
2023-05-08T03:22:44.360Z,3.13
2023-05-08T03:25:11.441Z,3.33
2023-05-08T03:27:42.205Z,3.10
2023-05-08T03:30:09.613Z,3.92
2023-05-08T03:32:38.629Z,3.25
2023-05-08T03:35:05.465Z,4.03
2023-05-08T03:37:37.292Z,3.03
2023-05-08T03:42:30.938Z,3.42
2023-05-08T03:44:59.081Z,3.20
2023-05-08T03:47:28.986Z,3.10
2023-05-08T03:49:56.317Z,3.58
2023-05-08T03:52:25.110Z,3.22
2023-05-08T03:54:52.622Z,4.10
2023-05-08T03:57:23.496Z,3.70
2023-05-08T03:59:50.810Z,3.88
2023-05-08T04:02:17.575Z,3.33
2023-05-08T04:04:45.336Z,3.35
2023-05-08T04:07:16.653Z,3.30
2023-05-08T04:09:45.811Z,3.28
2023-05-08T04:12:12.561Z,3.47
2023-05-08T04:14:39.254Z,3.35
2023-05-08T04:17:09.084Z,3.40
2023-05-08T04:19:35.755Z,3.25
2023-05-08T04:22:03.174Z,3.80
2023-05-08T04:24:30.014Z,3.10
2023-05-08T04:26:57.919Z,3.40
2023-05-08T04:29:25.212Z,2.95
2023-05-08T04:31:51.836Z,2.80
2023-05-08T04:34:18.590Z,3.15
2023-05-08T04:36:48.518Z,3.15
2023-05-08T04:39:15.544Z,3.03
2023-05-08T04:41:42.536Z,3.85
2023-05-08T04:44:09.326Z,3.25
2023-05-08T04:49:40.657Z,3.60
2023-05-08T04:52:07.879Z,3.20
2023-05-08T04:54:34.994Z,3.20
2023-05-08T04:57:01.699Z,4.00
2023-05-08T04:59:29.677Z,3.40
2023-05-08T05:01:56.383Z,2.85
2023-05-08T05:04:23.098Z,3.25
2023-05-08T05:06:50.457Z,3.10
2023-05-08T05:09:17.204Z,2.85
2023-05-08T05:11:43.896Z,3.15
2023-05-08T05:14:10.768Z,3.50
2023-05-08T05:16:38.062Z,3.08
2023-05-08T05:19:04.971Z,2.88
2023-05-08T05:21:32.261Z,3.13
2023-05-08T05:23:58.892Z,3.28
2023-05-08T05:26:44.628Z,3.03
2023-05-08T05:29:11.378Z,3.47
2023-05-08T05:31:38.609Z,3.53
2023-05-08T05:34:05.355Z,2.97
2023-05-08T05:36:33.265Z,2.80
2023-05-08T05:38:59.967Z,2.65
2023-05-08T05:41:26.596Z,2.47
2023-05-08T05:43:53.205Z,3.30
2023-05-08T05:46:20.990Z,3.22
2023-05-08T05:48:47.846Z,2.80
2023-05-08T05:51:14.490Z,3.00
2023-05-08T05:53:41.245Z,3.05
2023-05-08T05:56:08.051Z,3.50
2023-05-08T05:58:37.092Z,3.30
2023-05-08T06:01:04.493Z,3.35
2023-05-08T06:03:31.332Z,3.75
2023-05-08T06:06:03.326Z,3.35
2023-05-08T06:08:30.013Z,3.20
2023-05-08T06:10:56.656Z,3.35
2023-05-08T06:13:23.340Z,3.42
2023-05-08T06:16:09.757Z,3.78
2023-05-08T06:18:36.427Z,3.10
2023-05-08T06:21:03.263Z,3.30
2023-05-08T06:23:29.890Z,3.47
2023-05-08T06:25:58.669Z,3.92
2023-05-08T06:28:26.161Z,3.50
2023-05-08T06:30:52.940Z,3.50
2023-05-08T06:33:19.678Z,3.72
2023-05-08T06:35:47.799Z,3.63
2023-05-08T06:38:14.615Z,3.85
2023-05-08T06:40:41.216Z,3.33
2023-05-08T06:43:07.838Z,3.83
2023-05-08T06:45:35.575Z,4.32
2023-05-08T06:48:02.256Z,4.28
2023-05-08T06:50:28.867Z,4.03
2023-05-08T06:52:55.720Z,4.30
2023-05-08T06:55:22.332Z,3.88
2023-05-08T06:57:49.014Z,3.40
2023-05-08T07:00:16.272Z,3.70
2023-05-08T07:02:42.941Z,3.42
2023-05-08T07:05:09.829Z,3.70
2023-05-08T07:10:40.704Z,3.67
2023-05-08T07:13:07.457Z,3.63
2023-05-08T07:15:53.043Z,3.80
2023-05-08T07:18:19.650Z,4.18
2023-05-08T07:20:46.250Z,3.85
2023-05-08T07:23:12.892Z,4.10
2023-05-08T07:25:44.652Z,3.88
2023-05-08T07:30:37.895Z,3.97
2023-05-08T07:33:04.844Z,3.78
2023-05-08T07:35:34.286Z,3.58
2023-05-08T07:38:00.921Z,3.88
2023-05-08T07:40:27.522Z,4.50
2023-05-08T07:42:54.144Z,3.88
2023-05-08T07:45:20.879Z,3.97
2023-05-08T07:47:47.663Z,3.35
2023-05-08T07:50:14.275Z,4.13
2023-05-08T07:52:40.917Z,3.30
2023-05-08T07:55:07.713Z,3.75
2023-05-08T07:57:34.346Z,4.00
2023-05-08T08:00:00.924Z,3.63
2023-05-08T08:02:27.656Z,3.17
2023-05-08T08:04:54.282Z,3.50
2023-05-08T08:07:24.136Z,3.28
2023-05-08T08:09:51.037Z,3.08
2023-05-08T08:12:17.763Z,3.38
2023-05-08T08:14:44.380Z,3.20
2023-05-08T08:17:11.483Z,3.80
2023-05-08T08:19:38.195Z,3.58
2023-05-08T08:22:04.812Z,3.65
2023-05-08T08:24:31.984Z,3.50
2023-05-08T08:26:58.831Z,3.20
2023-05-08T08:29:25.874Z,3.53
2023-05-08T08:31:52.505Z,3.75
2023-05-08T08:34:19.125Z,3.85
2023-05-08T08:36:46.893Z,4.38
2023-05-08T08:39:17.216Z,4.32
2023-05-08T08:41:43.949Z,4.20
2023-05-08T08:44:10.717Z,4.13
2023-05-08T08:46:59.950Z,4.18
2023-05-08T08:49:26.579Z,3.97
2023-05-08T08:51:53.417Z,3.67
2023-05-08T08:54:20.069Z,3.67
2023-05-08T08:57:05.680Z,3.58
2023-05-08T08:59:32.325Z,3.45
2023-05-08T09:01:59.006Z,2.78
2023-05-08T09:04:27.400Z,3.40
2023-05-08T09:06:54.917Z,3.30
2023-05-08T09:09:22.493Z,3.30
2023-05-08T09:11:49.317Z,3.40
2023-05-08T09:14:16.022Z,2.97
2023-05-08T09:16:43.987Z,2.95
2023-05-08T09:19:13.768Z,2.50
2023-05-08T09:21:40.425Z,2.65
2023-05-08T09:24:07.343Z,2.22
2023-05-08T09:26:38.271Z,2.47
2023-05-08T09:29:04.942Z,2.03
2023-05-08T09:31:32.699Z,2.13
2023-05-08T09:33:59.528Z,2.00
2023-05-08T09:36:29.065Z,2.10
2023-05-08T09:38:55.760Z,1.90
2023-05-08T09:41:24.131Z,1.92
2023-05-08T09:43:51.553Z,2.08
2023-05-08T09:46:22.344Z,1.80
2023-05-08T09:48:49.148Z,1.90
2023-05-08T09:51:15.744Z,2.13
2023-05-08T09:53:42.360Z,1.80
2023-05-08T09:56:10.247Z,2.20
2023-05-08T09:58:36.890Z,2.20
2023-05-08T10:01:03.548Z,1.80
2023-05-08T10:03:30.367Z,1.77
2023-05-08T10:05:59.131Z,1.80
2023-05-08T10:08:26.889Z,1.70
2023-05-08T10:10:53.531Z,2.20
2023-05-08T10:13:20.340Z,2.10
2023-05-08T10:15:49.323Z,2.33
2023-05-08T10:18:15.987Z,2.38
2023-05-08T10:20:44.309Z,1.98
2023-05-08T10:23:11.500Z,2.33
2023-05-08T10:25:40.373Z,1.88
2023-05-08T10:28:07.138Z,2.15
2023-05-08T10:30:33.774Z,2.10
2023-05-08T10:33:00.644Z,2.13
2023-05-08T10:35:27.309Z,2.35
2023-05-08T10:37:54.019Z,2.10
2023-05-08T10:40:21.399Z,1.70
2023-05-08T10:42:48.468Z,2.08
2023-05-08T10:45:15.201Z,1.80
2023-05-08T10:48:01.010Z,1.90
2023-05-08T10:50:27.740Z,1.73
2023-05-08T10:52:54.950Z,2.13
2023-05-08T10:55:22.048Z,1.85
2023-05-08T10:57:48.718Z,1.77
2023-05-08T11:00:15.713Z,1.83
2023-05-08T11:02:42.655Z,1.73
2023-05-08T11:05:09.307Z,1.60
2023-05-08T11:07:38.084Z,1.40
2023-05-08T11:10:04.805Z,1.70
2023-05-08T11:12:31.588Z,1.60
2023-05-08T11:14:58.258Z,1.92
2023-05-08T11:17:27.155Z,1.80
2023-05-08T11:19:53.786Z,1.83
2023-05-08T11:22:20.393Z,1.65
2023-05-08T11:24:47.041Z,2.10
2023-05-08T11:27:33.672Z,1.80
2023-05-08T11:30:00.290Z,1.70
2023-05-08T11:32:26.955Z,1.67
2023-05-08T11:34:53.612Z,1.83
2023-05-08T11:37:21.442Z,1.73
2023-05-08T11:39:48.084Z,1.45
2023-05-08T11:42:14.683Z,1.98
2023-05-08T11:44:41.561Z,1.77
2023-05-08T11:47:27.219Z,1.80
2023-05-08T11:49:53.873Z,1.60
2023-05-08T11:52:20.907Z,1.80
2023-05-08T11:54:47.678Z,1.80
2023-05-08T11:57:15.624Z,1.50
2023-05-08T11:59:43.648Z,1.40
2023-05-08T12:02:10.349Z,1.52
2023-05-08T12:04:37.025Z,1.90
2023-05-08T12:10:07.072Z,1.42
2023-05-08T12:12:33.721Z,1.50
2023-05-08T12:15:00.773Z,2.00
2023-05-08T12:17:46.453Z,1.70
2023-05-08T12:20:13.745Z,1.50
2023-05-08T12:22:40.758Z,1.60
2023-05-08T12:25:07.387Z,2.00
2023-05-08T12:27:35.136Z,1.88
2023-05-08T12:30:03.026Z,1.67
2023-05-08T12:32:29.706Z,1.70
2023-05-08T12:34:56.374Z,1.75
2023-05-08T12:37:23.200Z,1.60
2023-05-08T12:39:49.848Z,1.45
2023-05-08T12:42:16.623Z,1.50
2023-05-08T12:44:43.292Z,1.15
2023-05-08T12:47:29.163Z,0.95
2023-05-08T12:49:55.951Z,1.35
2023-05-08T12:52:23.618Z,1.30
2023-05-08T12:54:50.394Z,1.50
2023-05-08T12:57:38.017Z,1.38
2023-05-08T13:00:05.101Z,1.35
2023-05-08T13:02:31.915Z,1.35
2023-05-08T13:04:59.412Z,1.35
2023-05-08T13:07:26.435Z,1.30
2023-05-08T13:09:53.056Z,1.30
2023-05-08T13:12:19.880Z,1.60
2023-05-08T13:14:46.513Z,1.50
2023-05-08T13:17:13.239Z,1.40
2023-05-08T13:19:39.999Z,1.40
2023-05-08T13:22:14.070Z,1.13
2023-05-08T13:24:40.852Z,1.30
2023-05-08T13:30:11.275Z,1.15
2023-05-08T13:32:38.057Z,1.35
2023-05-08T13:35:04.794Z,1.20
2023-05-08T13:37:31.457Z,1.20
2023-05-08T13:39:58.059Z,1.20
2023-05-08T13:42:24.694Z,1.23
2023-05-08T13:44:51.349Z,1.30
2023-05-08T13:47:18.004Z,1.45
2023-05-08T13:49:46.896Z,1.27
2023-05-08T13:52:13.515Z,1.23
2023-05-08T13:54:40.252Z,1.35
2023-05-08T13:57:08.082Z,1.45
2023-05-08T13:59:34.788Z,1.27
2023-05-08T14:02:01.451Z,1.20
2023-05-08T14:04:28.158Z,1.33
2023-05-08T14:06:54.813Z,1.10
2023-05-08T14:09:21.590Z,1.40
2023-05-08T14:11:48.201Z,1.20
2023-05-08T14:14:14.919Z,1.10
2023-05-08T14:16:41.802Z,1.30
2023-05-08T14:19:08.689Z,0.90
2023-05-08T14:21:36.788Z,1.10
2023-05-08T14:24:03.444Z,1.15
2023-05-08T14:26:30.072Z,1.35
2023-05-08T14:28:56.785Z,1.50
2023-05-08T14:31:23.577Z,1.20
2023-05-08T14:33:50.347Z,1.20
2023-05-08T14:36:16.993Z,1.25
2023-05-08T14:38:43.766Z,1.10
2023-05-08T14:41:10.436Z,1.77
2023-05-08T14:43:37.208Z,1.20
2023-05-08T14:46:03.931Z,1.30
2023-05-08T14:48:30.647Z,1.40
2023-05-08T14:50:57.425Z,1.50
2023-05-08T14:53:24.262Z,1.33
2023-05-08T14:55:51.272Z,1.40
2023-05-08T14:58:18.212Z,1.25
2023-05-08T15:00:44.858Z,1.65
2023-05-08T15:03:12.057Z,1.48
2023-05-08T15:05:38.815Z,1.30
2023-05-08T15:08:05.575Z,1.42
2023-05-08T15:10:32.257Z,1.52
2023-05-08T15:12:59.054Z,1.60
2023-05-08T15:15:25.978Z,1.77
2023-05-08T15:17:52.877Z,1.52
2023-05-08T15:20:21.085Z,1.60
2023-05-08T15:22:47.922Z,1.55
2023-05-08T15:25:14.830Z,1.50
2023-05-08T15:27:43.239Z,1.40
2023-05-08T15:30:10.081Z,1.67
2023-05-08T15:32:38.311Z,1.55
2023-05-08T15:35:05.108Z,1.48
2023-05-08T15:37:31.862Z,1.50
2023-05-08T15:39:58.474Z,1.58
2023-05-08T15:42:25.231Z,1.40
2023-05-08T15:44:54.904Z,1.73
2023-05-08T15:47:23.473Z,1.52
2023-05-08T15:49:50.516Z,1.50
2023-05-08T15:52:18.757Z,1.73
2023-05-08T15:54:45.449Z,1.80
2023-05-08T15:57:12.161Z,1.90
2023-05-08T15:59:38.804Z,1.85
2023-05-08T16:02:05.717Z,1.75
2023-05-08T16:04:32.394Z,1.88
2023-05-08T16:06:59.063Z,1.92
2023-05-08T16:09:25.683Z,1.83
2023-05-08T16:11:52.722Z,1.77
2023-05-08T16:14:20.083Z,1.75
2023-05-08T16:16:46.846Z,1.83
2023-05-08T16:19:14.869Z,2.22
2023-05-08T16:21:41.599Z,1.90
2023-05-08T16:24:08.233Z,1.90
2023-05-08T16:26:35.239Z,2.00
2023-05-08T16:29:04.873Z,3.15
2023-05-08T16:31:31.641Z,1.73
2023-05-08T16:33:58.388Z,2.08
2023-05-08T16:36:25.119Z,2.47
2023-05-08T16:38:51.891Z,2.03
2023-05-08T16:41:18.572Z,2.35
2023-05-08T16:43:45.253Z,2.10
2023-05-08T16:46:11.984Z,2.13
2023-05-08T16:48:38.636Z,2.28
2023-05-08T16:51:05.386Z,1.90
2023-05-08T16:53:32.609Z,2.10
2023-05-08T16:55:59.318Z,2.08
2023-05-08T16:58:27.113Z,1.90
2023-05-08T17:00:53.960Z,1.75
2023-05-08T17:03:20.995Z,2.00
2023-05-08T17:05:47.757Z,1.70
2023-05-08T17:08:14.400Z,2.22
2023-05-08T17:10:41.399Z,2.00
2023-05-08T17:13:08.074Z,1.75
2023-05-08T17:15:35.918Z,1.90
2023-05-08T17:18:02.634Z,1.73
2023-05-08T17:20:29.381Z,1.60
2023-05-08T17:22:56.107Z,1.77
2023-05-08T17:25:22.828Z,1.48
2023-05-08T17:27:49.548Z,1.40
2023-05-08T17:30:17.014Z,1.60
2023-05-08T17:32:43.824Z,1.38
2023-05-08T17:35:10.492Z,1.58
2023-05-08T17:37:39.387Z,1.50
2023-05-08T17:40:06.063Z,1.58
2023-05-08T17:42:32.645Z,1.40
2023-05-08T17:44:59.430Z,1.25
2023-05-08T17:47:27.416Z,1.70
2023-05-08T17:49:54.141Z,1.35
2023-05-08T17:52:20.895Z,1.30
2023-05-08T17:54:47.710Z,1.50
2023-05-08T17:57:14.367Z,1.58
2023-05-08T17:59:40.997Z,1.38
2023-05-08T18:02:07.768Z,1.45
2023-05-08T18:04:34.426Z,1.30
2023-05-08T18:07:04.263Z,1.20
2023-05-08T18:09:30.877Z,1.38
2023-05-08T18:12:02.201Z,1.30
2023-05-08T18:14:28.848Z,1.33
2023-05-08T18:16:56.701Z,1.20
2023-05-08T18:19:28.502Z,1.23
2023-05-08T18:24:22.565Z,1.20
2023-05-08T18:26:51.202Z,1.10
2023-05-08T18:29:19.076Z,1.63
2023-05-08T18:31:46.027Z,1.30
2023-05-08T18:34:12.750Z,1.30
2023-05-08T18:36:58.473Z,1.30
2023-05-08T18:39:25.195Z,1.40
2023-05-08T18:41:51.808Z,1.20
2023-05-08T18:44:18.709Z,1.67
2023-05-08T18:47:05.602Z,1.33
2023-05-08T18:49:32.302Z,1.48
2023-05-08T18:51:58.977Z,1.20
2023-05-08T18:54:26.977Z,1.50
2023-05-08T18:56:54.825Z,1.48
2023-05-08T18:59:21.701Z,1.20
2023-05-08T19:01:48.406Z,1.52
2023-05-08T19:04:15.188Z,1.10
2023-05-08T19:07:02.439Z,1.20
2023-05-08T19:09:29.143Z,1.42
2023-05-08T19:11:55.836Z,1.15
2023-05-08T19:14:22.511Z,1.38
2023-05-08T19:16:51.390Z,1.20
2023-05-08T19:19:18.467Z,1.20
2023-05-08T19:21:45.559Z,1.10
2023-05-08T19:24:12.489Z,1.10
2023-05-08T19:26:40.401Z,1.38
2023-05-08T19:29:07.106Z,1.10
2023-05-08T19:31:33.791Z,1.00
2023-05-08T19:34:00.539Z,1.33
2023-05-08T19:36:46.450Z,1.20
2023-05-08T19:39:13.745Z,1.38
2023-05-08T19:41:40.773Z,1.48
2023-05-08T19:44:07.523Z,1.30
2023-05-08T19:46:53.257Z,1.25
2023-05-08T19:49:19.980Z,1.30
2023-05-08T19:51:48.560Z,1.20
2023-05-08T19:54:15.265Z,1.30
2023-05-08T19:56:46.174Z,1.33
2023-05-08T19:59:12.809Z,1.40
2023-05-08T20:01:39.484Z,1.50
2023-05-08T20:04:06.225Z,1.20
2023-05-08T20:06:33.199Z,1.40
2023-05-08T20:09:00.009Z,1.42
2023-05-08T20:11:26.820Z,1.65
2023-05-08T20:13:53.463Z,1.25
2023-05-08T20:16:22.412Z,1.63
2023-05-08T20:18:49.551Z,1.60
2023-05-08T20:21:16.352Z,1.50
2023-05-08T20:23:43.882Z,2.03
2023-05-08T20:29:14.624Z,1.70
2023-05-08T20:31:41.529Z,2.25
2023-05-08T20:34:08.289Z,2.00
2023-05-08T20:39:45.192Z,2.70
2023-05-08T20:42:11.932Z,2.60
2023-05-08T20:44:38.612Z,2.20
2023-05-08T20:47:07.748Z,2.30
2023-05-08T20:49:34.831Z,2.70
2023-05-08T20:52:01.938Z,3.08
2023-05-08T20:54:28.650Z,3.20
2023-05-08T20:56:57.383Z,2.70
2023-05-08T20:59:24.111Z,2.60
2023-05-08T21:01:51.205Z,2.97
2023-05-08T21:04:17.981Z,2.97
2023-05-08T21:06:46.072Z,3.22
2023-05-08T21:09:12.811Z,3.03
2023-05-08T21:11:39.470Z,2.92
2023-05-08T21:14:06.142Z,2.90
2023-05-08T21:16:33.948Z,3.13
2023-05-08T21:19:00.581Z,3.63
2023-05-08T21:21:27.937Z,3.70
2023-05-08T21:23:54.680Z,3.65
2023-05-08T21:26:23.698Z,3.53
2023-05-08T21:28:52.717Z,3.92
2023-05-08T21:31:19.612Z,3.65
2023-05-08T21:33:46.381Z,4.15
2023-05-08T21:36:14.295Z,3.67
2023-05-08T21:38:40.935Z,4.40
2023-05-08T21:41:08.326Z,4.53
2023-05-08T21:43:36.099Z,4.28
2023-05-08T21:46:04.105Z,3.85
2023-05-08T21:48:30.842Z,4.35
2023-05-08T21:50:57.546Z,3.97
2023-05-08T21:53:24.214Z,4.88
2023-05-08T21:55:51.993Z,4.00
2023-05-08T21:58:18.627Z,4.60
2023-05-08T22:00:45.285Z,4.82
2023-05-08T22:03:11.948Z,4.18
2023-05-08T22:05:40.928Z,4.07
2023-05-08T22:08:07.599Z,4.10
2023-05-08T22:10:34.304Z,4.50
2023-05-08T22:13:01.757Z,4.82
2023-05-08T22:15:30.692Z,4.45
2023-05-08T22:17:57.648Z,4.68
2023-05-08T22:20:24.376Z,4.72
2023-05-08T22:22:51.009Z,4.05
2023-05-08T22:25:17.681Z,4.95
2023-05-08T22:30:47.520Z,3.70
2023-05-08T22:33:14.080Z,3.40
2023-05-08T22:35:42.936Z,4.00
2023-05-08T22:38:09.523Z,4.00
2023-05-08T22:40:36.134Z,4.05
2023-05-08T22:43:02.760Z,3.72
2023-05-08T22:45:30.709Z,3.35
2023-05-08T22:47:57.388Z,3.35
2023-05-08T22:50:24.094Z,3.17
2023-05-08T22:52:50.733Z,3.38
2023-05-08T22:55:17.540Z,2.90
2023-05-08T22:57:46.422Z,2.53
2023-05-08T23:00:13.354Z,2.70
2023-05-08T23:02:40.068Z,2.70
2023-05-08T23:05:06.774Z,2.38
2023-05-08T23:07:38.658Z,2.63
2023-05-08T23:12:31.939Z,2.30
2023-05-08T23:14:58.554Z,2.50
2023-05-08T23:17:27.290Z,2.13
2023-05-08T23:19:53.918Z,2.10
2023-05-08T23:22:20.745Z,1.70
2023-05-08T23:24:47.456Z,1.75
2023-05-08T23:27:16.190Z,1.63
2023-05-08T23:29:42.993Z,1.65
2023-05-08T23:32:09.554Z,1.77
2023-05-08T23:34:36.163Z,1.50
2023-05-08T23:37:02.959Z,1.50
2023-05-08T23:39:29.616Z,1.33
2023-05-08T23:41:56.222Z,1.15
2023-05-08T23:44:22.810Z,1.20
2023-05-08T23:46:50.729Z,1.30
2023-05-08T23:49:17.488Z,1.20
2023-05-08T23:51:44.069Z,1.10
2023-05-08T23:54:10.709Z,1.05
2023-05-08T23:56:56.650Z,1.10
2023-05-08T23:59:23.349Z,1.10
